TAF KRHI
KRHI 270520Z 2706/2806 15004KT P6SM BKN080 FM271000 14004KT P6SM -SN OVC040 TEMPO 2711/2713 4SM -SN OVC025 FM271300 15004KT 3SM -SN OVC025 TEMPO 2715/2719 1 1/2SM -SN OVC012 FM272100 30004KT 4SM -SN BKN020 OVC035 FM280100 28007KT P6SM BKN020 OVC035=
METAR KRHI
WC KRHI
WS KRHI
WV KRHI